Terminal Aerodrome Forecast
Issued by NWS Memphis, TN

Home | Current Version | Previous Version | Text Only | Print | Product List | Glossary On
Versions: 1 2 3 4 5 6 7 8 9 10 11 12 13 14 15 16 17 18 19
000
FTUS44 KMEG 191700
TAFMKL
TAF
KMKL 191720Z 1918/2018 09004KT P6SM SCT040
     FM200000 00000KT P6SM SKC
     FM200500 00000KT 4SM BR SKC
      TEMPO 2008/2012 2SM BR SCT003
     FM201400 17006KT P6SM SCT040=

USA.gov is the U.S. government's official web portal to all federal, state and local government web resources and services.